Time;durP1;ratioP1;P1;durP2;ratioP2;P2;SDS_P1;SDS_P2;PMS_P1;PMS_P2;Temp;Humidity;BMP_temperature;BMP_pressure;BME280_temperature;BME280_humidity;BME280_pressure;Samples;Min_cycle;Max_cycle;Signal;HPM_P1;HPM_P2
2021/12/01 00:02:19;;;;;;;1.13;1.00;;;;;;;;;;4996326;28;20184;-85
2021/12/01 00:04:45;;;;;;;1.53;1.43;;;;;;;;;;4975802;28;20180;-84
2021/12/01 00:07:12;;;;;;;2.45;1.20;;;;;;;;;;4994812;28;20428;-86
2021/12/01 00:09:38;;;;;;;1.83;1.65;;;;;;;;;;4992355;28;20619;-88
2021/12/01 00:12:04;;;;;;;1.45;1.23;;;;;;;;;;4989709;28;20218;-88
2021/12/01 00:14:30;;;;;;;4.55;1.55;;;;;;;;;;4993721;28;20826;-85
2021/12/01 00:16:56;;;;;;;1.83;1.50;;;;;;;;;;4974937;28;20223;-91
2021/12/01 00:19:22;;;;;;;1.50;1.40;;;;;;;;;;4976669;28;20188;-84
2021/12/01 00:21:48;;;;;;;1.55;1.02;;;;;;;;;;4993493;28;20477;-87
2021/12/01 00:24:14;;;;;;;2.53;1.90;;;;;;;;;;4981440;28;20211;-85
2021/12/01 00:26:40;;;;;;;2.25;1.40;;;;;;;;;;4996241;28;20471;-85
2021/12/01 00:29:06;;;;;;;2.05;1.35;;;;;;;;;;4993152;28;20307;-87
2021/12/01 00:31:32;;;;;;;1.38;1.15;;;;;;;;;;4994348;28;20187;-83
2021/12/01 00:33:58;;;;;;;1.60;1.27;;;;;;;;;;4990609;28;20190;-86
2021/12/01 00:36:27;;;;;;;3.05;1.50;;;;;;;;;;4995937;28;20203;-86
2021/12/01 00:38:53;;;;;;;1.95;1.30;;;;;;;;;;4996762;28;20202;-85
2021/12/01 00:41:21;;;;;;;1.40;1.30;;;;;;;;;;4981590;28;20196;-84
2021/12/01 00:43:47;;;;;;;4.47;1.75;;;;;;;;;;4981883;28;20429;-89
2021/12/01 00:46:19;;;;;;;2.58;1.80;;;;;;;;;;4996124;28;20267;-82
2021/12/01 00:48:45;;;;;;;1.45;1.35;;;;;;;;;;5010813;28;20187;-86
2021/12/01 00:51:11;;;;;;;2.80;1.90;;;;;;;;;;4995502;28;20188;-89
2021/12/01 00:53:37;;;;;;;1.70;1.60;;;;;;;;;;4999257;28;20438;-85
2021/12/01 00:56:03;;;;;;;3.35;1.67;;;;;;;;;;4981698;28;20201;-89
2021/12/01 00:58:29;;;;;;;2.92;1.83;;;;;;;;;;4983347;28;20219;-86
2021/12/01 01:00:55;;;;;;;2.30;2.10;;;;;;;;;;4994150;28;20187;-86
2021/12/01 01:03:21;;;;;;;2.03;1.70;;;;;;;;;;4979295;28;20190;-84
2021/12/01 01:05:48;;;;;;;2.20;2.00;;;;;;;;;;4999026;28;20211;-85
2021/12/01 01:08:15;;;;;;;3.25;1.83;;;;;;;;;;4995550;28;20176;-86
2021/12/01 01:18:40;;;;;;;2.05;1.10;;;;;;;;;;4979467;28;20195;-86
2021/12/01 01:21:07;;;;;;;1.77;1.35;;;;;;;;;;4995662;28;20243;-88
2021/12/01 01:23:33;;;;;;;1.55;1.45;;;;;;;;;;4983619;28;20252;-86
2021/12/01 01:26:00;;;;;;;2.28;1.20;;;;;;;;;;4984110;28;20224;-86
2021/12/01 01:28:26;;;;;;;3.33;1.40;;;;;;;;;;4999477;28;20180;-85
2021/12/01 01:30:53;;;;;;;1.27;1.17;;;;;;;;;;4993701;28;20661;-84
2021/12/01 01:33:20;;;;;;;1.55;0.90;;;;;;;;;;4993670;28;20216;-87
2021/12/01 01:35:46;;;;;;;1.40;1.23;;;;;;;;;;4982451;28;20191;-84
2021/12/01 01:38:12;;;;;;;2.45;1.17;;;;;;;;;;4995109;28;20188;-87
2021/12/01 01:40:38;;;;;;;1.75;0.90;;;;;;;;;;4982410;28;20188;-87
2021/12/01 01:43:07;;;;;;;1.35;1.25;;;;;;;;;;4995160;28;20180;-87
2021/12/01 01:45:34;;;;;;;1.25;0.88;;;;;;;;;;4996779;28;20213;-88
2021/12/01 01:48:03;;;;;;;2.08;1.40;;;;;;;;;;4996807;28;20188;-89
2021/12/01 01:50:37;;;;;;;1.80;1.20;;;;;;;;;;4997324;28;20184;-86
2021/12/01 01:53:29;;;;;;;2.28;0.95;;;;;;;;;;4980266;28;20195;-86
2021/12/01 01:55:57;;;;;;;1.10;1.00;;;;;;;;;;4984723;28;20192;-86
2021/12/01 01:58:23;;;;;;;1.25;1.08;;;;;;;;;;4996048;28;20179;-85
2021/12/01 02:00:52;;;;;;;1.60;1.25;;;;;;;;;;4978755;28;20188;-86
2021/12/01 02:03:18;;;;;;;1.30;0.90;;;;;;;;;;4993107;28;20255;-85
2021/12/01 02:05:45;;;;;;;1.00;0.75;;;;;;;;;;4979827;28;20211;-85
2021/12/01 02:08:28;;;;;;;3.50;1.10;;;;;;;;;;4981742;28;20205;-88
2021/12/01 02:10:54;;;;;;;1.20;1.10;;;;;;;;;;4978713;28;20279;-83
2021/12/01 02:13:21;;;;;;;1.10;0.85;;;;;;;;;;4980432;28;20194;-86
2021/12/01 02:15:48;;;;;;;1.30;1.17;;;;;;;;;;4992450;28;20258;-87
2021/12/01 02:18:14;;;;;;;1.10;1.00;;;;;;;;;;4994219;28;20285;-85
2021/12/01 02:20:41;;;;;;;3.00;2.15;;;;;;;;;;4997798;28;20191;-85
2021/12/01 02:23:07;;;;;;;1.42;0.82;;;;;;;;;;4992552;28;20184;-84
2021/12/01 02:25:33;;;;;;;1.30;0.85;;;;;;;;;;5002038;28;20219;-85
2021/12/01 02:27:59;;;;;;;2.10;1.08;;;;;;;;;;4982126;28;20274;-85
2021/12/01 02:30:25;;;;;;;1.90;1.07;;;;;;;;;;4982079;28;20199;-84
2021/12/01 02:32:51;;;;;;;2.20;0.98;;;;;;;;;;4995321;28;20453;-86
2021/12/01 02:35:17;;;;;;;1.10;0.90;;;;;;;;;;4995287;28;20189;-86
2021/12/01 02:37:44;;;;;;;1.05;0.80;;;;;;;;;;4978898;28;20186;-83
2021/12/01 02:40:10;;;;;;;1.13;0.93;;;;;;;;;;4994154;28;20171;-88
2021/12/01 02:42:36;;;;;;;1.00;0.90;;;;;;;;;;4996255;28;20662;-86
2021/12/01 02:45:02;;;;;;;1.70;1.33;;;;;;;;;;4994936;28;20193;-85
2021/12/01 02:47:29;;;;;;;1.40;1.17;;;;;;;;;;4995359;28;20447;-90
2021/12/01 02:49:55;;;;;;;1.33;1.20;;;;;;;;;;4978484;28;20179;-86
2021/12/01 02:52:24;;;;;;;1.63;1.30;;;;;;;;;;4980212;28;20188;-83
2021/12/01 02:54:50;;;;;;;1.58;1.48;;;;;;;;;;4993088;28;20186;-86
2021/12/01 02:57:16;;;;;;;2.20;1.50;;;;;;;;;;4992867;28;20180;-87
2021/12/01 02:59:43;;;;;;;3.95;1.98;;;;;;;;;;4996795;28;20180;-86
2021/12/01 03:02:09;;;;;;;3.08;1.50;;;;;;;;;;4992035;28;20527;-85
2021/12/01 03:04:35;;;;;;;2.85;2.65;;;;;;;;;;4981677;28;20172;-87
2021/12/01 03:07:02;;;;;;;1.20;1.10;;;;;;;;;;4977015;28;20203;-87
2021/12/01 03:09:28;;;;;;;1.27;1.10;;;;;;;;;;4992792;28;20519;-86
2021/12/01 03:11:54;;;;;;;1.10;1.00;;;;;;;;;;4979062;28;20184;-85
2021/12/01 03:14:21;;;;;;;6.03;1.50;;;;;;;;;;4994597;28;20432;-90
2021/12/01 03:16:48;;;;;;;1.13;1.00;;;;;;;;;;4978891;28;20228;-90
2021/12/01 03:19:15;;;;;;;1.05;0.95;;;;;;;;;;4993466;28;20192;-87
2021/12/01 03:21:41;;;;;;;1.60;0.90;;;;;;;;;;4975102;28;20220;-88
2021/12/01 03:24:08;;;;;;;1.90;1.00;;;;;;;;;;4982243;28;20243;-86
2021/12/01 03:26:34;;;;;;;1.98;0.80;;;;;;;;;;4982295;28;20212;-84
2021/12/01 03:29:01;;;;;;;1.35;1.25;;;;;;;;;;4978576;28;20316;-86
2021/12/01 03:31:27;;;;;;;2.45;0.95;;;;;;;;;;4979689;28;20176;-84
2021/12/01 03:33:53;;;;;;;1.15;0.95;;;;;;;;;;4995982;28;20692;-90
2021/12/01 03:36:19;;;;;;;3.58;2.00;;;;;;;;;;4997151;28;20207;-85
2021/12/01 03:38:46;;;;;;;1.00;0.90;;;;;;;;;;4996251;28;20191;-85
2021/12/01 03:41:12;;;;;;;1.38;0.70;;;;;;;;;;4995702;28;20669;-84
2021/12/01 03:43:38;;;;;;;1.00;0.70;;;;;;;;;;4978457;28;20195;-85
2021/12/01 03:46:04;;;;;;;1.20;1.08;;;;;;;;;;4977199;28;20463;-84
2021/12/01 03:48:30;;;;;;;5.15;1.08;;;;;;;;;;4991458;28;20216;-86
2021/12/01 03:50:57;;;;;;;2.70;1.05;;;;;;;;;;4994140;28;20188;-86
2021/12/01 03:53:23;;;;;;;0.88;0.80;;;;;;;;;;4978451;28;20184;-84
2021/12/01 03:55:50;;;;;;;1.00;0.90;;;;;;;;;;4982908;28;20175;-87
2021/12/01 03:58:16;;;;;;;1.30;1.00;;;;;;;;;;4979624;28;20184;-85
2021/12/01 04:00:42;;;;;;;4.85;1.00;;;;;;;;;;4981844;28;20255;-87
2021/12/01 04:03:08;;;;;;;1.05;0.90;;;;;;;;;;4991729;28;20224;-86
2021/12/01 04:05:34;;;;;;;2.78;1.00;;;;;;;;;;4995042;28;20243;-87
2021/12/01 04:08:01;;;;;;;1.85;1.20;;;;;;;;;;4977371;28;20660;-84
2021/12/01 04:10:27;;;;;;;1.10;0.82;;;;;;;;;;4981217;28;20168;-85
2021/12/01 04:12:53;;;;;;;4.03;1.00;;;;;;;;;;4990312;28;20199;-84
2021/12/01 04:15:19;;;;;;;4.10;1.15;;;;;;;;;;4991662;28;20223;-82
2021/12/01 04:17:45;;;;;;;1.77;1.10;;;;;;;;;;4969543;28;20202;-83
2021/12/01 04:20:12;;;;;;;1.30;1.00;;;;;;;;;;4991691;28;20208;-81
2021/12/01 04:22:39;;;;;;;1.40;0.95;;;;;;;;;;4977825;28;20183;-82
2021/12/01 04:25:05;;;;;;;1.50;1.02;;;;;;;;;;4976662;28;20180;-87
2021/12/01 04:27:31;;;;;;;1.10;0.80;;;;;;;;;;4992328;28;20203;-85
2021/12/01 04:29:58;;;;;;;1.20;0.90;;;;;;;;;;4993511;28;20184;-84
2021/12/01 04:32:24;;;;;;;1.73;0.90;;;;;;;;;;4992415;28;20216;-86
2021/12/01 04:34:50;;;;;;;3.65;1.27;;;;;;;;;;4976293;28;20180;-82
2021/12/01 04:37:16;;;;;;;1.05;0.70;;;;;;;;;;4977322;28;20223;-84
2021/12/01 04:39:42;;;;;;;2.00;1.10;;;;;;;;;;4975974;28;20258;-83
2021/12/01 04:42:09;;;;;;;1.10;0.60;;;;;;;;;;4991674;28;20208;-83
2021/12/01 04:44:36;;;;;;;1.70;0.90;;;;;;;;;;4979724;28;20184;-85
2021/12/01 04:47:03;;;;;;;4.65;0.88;;;;;;;;;;4978676;28;20214;-83
2021/12/01 04:49:31;;;;;;;0.70;0.70;;;;;;;;;;4993489;28;20214;-85
2021/12/01 04:51:59;;;;;;;0.80;0.80;;;;;;;;;;4990716;28;20192;-83
2021/12/01 04:54:26;;;;;;;0.80;0.80;;;;;;;;;;4992426;28;20189;-82
2021/12/01 04:56:53;;;;;;;0.80;0.80;;;;;;;;;;4979375;28;20267;-81
2021/12/01 04:59:20;;;;;;;0.77;0.77;;;;;;;;;;4977851;28;20199;-82
2021/12/01 05:01:46;;;;;;;1.17;0.70;;;;;;;;;;4978134;28;20186;-86
2021/12/01 05:04:12;;;;;;;1.00;0.70;;;;;;;;;;4991308;28;20255;-82
2021/12/01 05:06:38;;;;;;;1.17;0.60;;;;;;;;;;4979610;28;20267;-83
2021/12/01 05:09:05;;;;;;;1.05;0.80;;;;;;;;;;4992660;28;20188;-83
2021/12/01 05:11:31;;;;;;;0.60;0.60;;;;;;;;;;4994069;28;20199;-83
2021/12/01 05:13:57;;;;;;;1.00;0.90;;;;;;;;;;4976962;28;20627;-83
2021/12/01 05:16:23;;;;;;;1.77;0.90;;;;;;;;;;4978571;28;20236;-81
2021/12/01 05:18:49;;;;;;;1.40;0.90;;;;;;;;;;4994804;28;20518;-83
2021/12/01 05:21:15;;;;;;;0.77;0.70;;;;;;;;;;4990679;28;20269;-82
2021/12/01 05:23:41;;;;;;;0.80;0.80;;;;;;;;;;4994307;28;20188;-87
2021/12/01 05:26:09;;;;;;;1.02;0.80;;;;;;;;;;4993702;28;20220;-83
2021/12/01 05:28:35;;;;;;;1.20;0.90;;;;;;;;;;5003173;28;20196;-87
2021/12/01 05:31:01;;;;;;;0.70;0.70;;;;;;;;;;4993742;28;20195;-87
2021/12/01 05:33:27;;;;;;;0.70;0.70;;;;;;;;;;4992793;28;20193;-87
2021/12/01 05:35:53;;;;;;;0.88;0.80;;;;;;;;;;4997197;28;20194;-81
2021/12/01 05:38:19;;;;;;;1.13;0.80;;;;;;;;;;4997231;28;20216;-86
2021/12/01 05:40:50;;;;;;;1.00;0.90;;;;;;;;;;4981390;28;20759;-83
2021/12/01 05:43:16;;;;;;;2.25;1.00;;;;;;;;;;4980179;28;20178;-83
2021/12/01 05:45:43;;;;;;;1.38;0.73;;;;;;;;;;4995982;28;20266;-86
2021/12/01 05:48:09;;;;;;;2.05;1.00;;;;;;;;;;4994480;28;20527;-86
2021/12/01 05:50:36;;;;;;;1.25;0.90;;;;;;;;;;4997654;28;20180;-84
2021/12/01 05:53:02;;;;;;;0.60;0.60;;;;;;;;;;4978158;28;20293;-88
2021/12/01 05:55:28;;;;;;;1.17;0.80;;;;;;;;;;4996693;28;20215;-87
2021/12/01 05:57:54;;;;;;;0.70;0.67;;;;;;;;;;4998276;28;20187;-84
2021/12/01 06:00:20;;;;;;;1.80;0.60;;;;;;;;;;4978438;28;20925;-81
2021/12/01 06:02:49;;;;;;;0.70;0.70;;;;;;;;;;4997654;28;20195;-85
2021/12/01 06:05:16;;;;;;;0.90;0.60;;;;;;;;;;4979606;28;20232;-84
2021/12/01 06:07:43;;;;;;;1.10;0.60;;;;;;;;;;4984334;28;20180;-84
2021/12/01 06:10:09;;;;;;;1.50;0.50;;;;;;;;;;4994524;28;20183;-82
2021/12/01 06:12:35;;;;;;;2.08;0.60;;;;;;;;;;4994205;28;20251;-84
2021/12/01 06:15:02;;;;;;;1.58;0.60;;;;;;;;;;4995150;28;20216;-83
2021/12/01 06:17:28;;;;;;;1.77;0.95;;;;;;;;;;4995499;28;20228;-85
2021/12/01 06:19:54;;;;;;;1.83;0.70;;;;;;;;;;4979778;28;20235;-87
2021/12/01 06:22:20;;;;;;;0.70;0.60;;;;;;;;;;4995022;28;20487;-87
2021/12/01 06:24:46;;;;;;;2.15;0.70;;;;;;;;;;4992999;28;20186;-84
2021/12/01 06:27:12;;;;;;;0.70;0.63;;;;;;;;;;4978771;28;20220;-85
2021/12/01 06:29:38;;;;;;;1.25;0.70;;;;;;;;;;4997329;28;20183;-83
2021/12/01 06:32:05;;;;;;;0.80;0.60;;;;;;;;;;4978228;28;20192;-85
2021/12/01 06:34:31;;;;;;;2.35;0.60;;;;;;;;;;5001309;28;20203;-83
2021/12/01 06:36:57;;;;;;;0.52;0.50;;;;;;;;;;4992807;28;20191;-85
2021/12/01 06:39:23;;;;;;;0.52;0.52;;;;;;;;;;4992137;28;20203;-86
2021/12/01 06:41:49;;;;;;;1.35;0.50;;;;;;;;;;4996553;28;20192;-84
2021/12/01 06:44:15;;;;;;;0.50;0.50;;;;;;;;;;4982219;28;20189;-87
2021/12/01 06:46:41;;;;;;;0.50;0.50;;;;;;;;;;4982639;28;20538;-84
2021/12/01 06:49:07;;;;;;;0.50;0.47;;;;;;;;;;4993572;28;20278;-85
2021/12/01 06:51:33;;;;;;;0.50;0.43;;;;;;;;;;4997574;28;20182;-84
2021/12/01 06:53:59;;;;;;;1.55;0.60;;;;;;;;;;4980359;28;20184;-87
2021/12/01 06:56:25;;;;;;;0.50;0.50;;;;;;;;;;4994671;28;20288;-88
2021/12/01 06:58:51;;;;;;;0.80;0.50;;;;;;;;;;4978442;28;20428;-87
2021/12/01 07:01:17;;;;;;;1.55;0.50;;;;;;;;;;4981168;28;20180;-84
2021/12/01 07:03:43;;;;;;;0.50;0.50;;;;;;;;;;4976601;28;20239;-85
2021/12/01 07:06:09;;;;;;;0.50;0.50;;;;;;;;;;4998867;28;20204;-85
2021/12/01 07:08:36;;;;;;;0.60;0.50;;;;;;;;;;4983347;28;20946;-86
2021/12/01 07:11:03;;;;;;;0.50;0.50;;;;;;;;;;4976363;28;20177;-82
2021/12/01 07:13:32;;;;;;;0.65;0.55;;;;;;;;;;4995278;28;20180;-82
2021/12/01 07:15:58;;;;;;;1.75;0.50;;;;;;;;;;4981866;28;20223;-80
2021/12/01 07:18:24;;;;;;;0.50;0.40;;;;;;;;;;4989801;28;20193;-82
2021/12/01 07:20:50;;;;;;;0.97;0.50;;;;;;;;;;4996061;28;20196;-82
2021/12/01 07:23:16;;;;;;;1.10;0.60;;;;;;;;;;4981200;28;20479;-84
2021/12/01 07:25:42;;;;;;;0.50;0.50;;;;;;;;;;5007659;28;20216;-84
2021/12/01 07:28:08;;;;;;;3.05;0.60;;;;;;;;;;4987496;28;20191;-82
2021/12/01 07:30:35;;;;;;;1.40;0.50;;;;;;;;;;4993181;28;20184;-83
2021/12/01 07:33:01;;;;;;;2.13;0.47;;;;;;;;;;4975772;28;20188;-81
2021/12/01 07:35:27;;;;;;;0.50;0.50;;;;;;;;;;4997045;28;20184;-86
2021/12/01 07:37:53;;;;;;;0.50;0.50;;;;;;;;;;4979698;28;20598;-86
2021/12/01 07:40:20;;;;;;;0.50;0.50;;;;;;;;;;4999017;28;20781;-84
2021/12/01 07:42:46;;;;;;;0.65;0.50;;;;;;;;;;4992989;28;20187;-83
2021/12/01 07:45:12;;;;;;;0.50;0.50;;;;;;;;;;4995144;28;20199;-81
2021/12/01 07:47:38;;;;;;;1.00;0.70;;;;;;;;;;4994289;28;20431;-83
2021/12/01 07:50:05;;;;;;;2.95;0.60;;;;;;;;;;4977542;28;20264;-83
2021/12/01 07:52:32;;;;;;;0.77;0.70;;;;;;;;;;4994622;28;20175;-84
2021/12/01 07:54:58;;;;;;;2.92;0.70;;;;;;;;;;4981209;28;20180;-87
2021/12/01 07:57:24;;;;;;;1.13;0.60;;;;;;;;;;4992903;28;20188;-85
2021/12/01 07:59:50;;;;;;;3.23;0.60;;;;;;;;;;4980578;28;20187;-82
2021/12/01 08:02:16;;;;;;;1.63;0.60;;;;;;;;;;4980402;28;20511;-85
2021/12/01 08:04:42;;;;;;;0.57;0.57;;;;;;;;;;4983811;28;20188;-82
2021/12/01 08:07:08;;;;;;;2.45;0.60;;;;;;;;;;4991118;28;20467;-84
2021/12/01 08:09:34;;;;;;;1.83;0.60;;;;;;;;;;4996347;28;20179;-86
2021/12/01 08:12:00;;;;;;;1.45;0.70;;;;;;;;;;4978346;28;20194;-83
2021/12/01 08:14:26;;;;;;;0.60;0.50;;;;;;;;;;4978382;28;20185;-86
2021/12/01 08:19:13;;;;;;;3.10;1.50;;;;;;;;;;5073141;28;21002;-77
2021/12/01 08:21:39;;;;;;;1.02;0.73;;;;;;;;;;5086255;28;20188;-79
2021/12/01 08:24:05;;;;;;;2.00;0.80;;;;;;;;;;5076493;28;20184;-81
2021/12/01 08:26:31;;;;;;;1.55;0.60;;;;;;;;;;5073998;28;20263;-79
2021/12/01 08:28:57;;;;;;;1.90;1.00;;;;;;;;;;5077464;28;20177;-77
2021/12/01 08:31:23;;;;;;;0.73;0.60;;;;;;;;;;5079236;28;20238;-78
2021/12/01 08:33:49;;;;;;;0.85;0.60;;;;;;;;;;5077786;28;20196;-80
2021/12/01 08:36:16;;;;;;;0.98;0.75;;;;;;;;;;5078877;28;20200;-79
2021/12/01 08:38:42;;;;;;;1.88;0.60;;;;;;;;;;5075196;28;20363;-79
2021/12/01 08:41:09;;;;;;;1.45;0.90;;;;;;;;;;5076794;28;20172;-80
2021/12/01 08:43:35;;;;;;;0.70;0.60;;;;;;;;;;5091781;28;20185;-79
2021/12/01 08:46:02;;;;;;;0.90;0.70;;;;;;;;;;5073070;28;20212;-78
2021/12/01 08:48:28;;;;;;;0.98;0.90;;;;;;;;;;5071813;28;20185;-78
2021/12/01 08:50:56;;;;;;;1.10;0.82;;;;;;;;;;5080988;28;20189;-79
2021/12/01 08:53:22;;;;;;;0.80;0.70;;;;;;;;;;5072753;28;20193;-78
2021/12/01 08:55:48;;;;;;;0.93;0.80;;;;;;;;;;5078581;28;20248;-77
2021/12/01 08:58:15;;;;;;;1.80;0.80;;;;;;;;;;5078724;28;20200;-79
2021/12/01 09:00:44;;;;;;;1.05;0.80;;;;;;;;;;5074802;28;20831;-78
2021/12/01 09:03:10;;;;;;;1.45;0.80;;;;;;;;;;5075065;28;20269;-76
2021/12/01 09:05:37;;;;;;;2.35;1.13;;;;;;;;;;5075265;28;20247;-76
2021/12/01 09:08:03;;;;;;;1.88;0.80;;;;;;;;;;5076218;28;20199;-76
2021/12/01 09:10:29;;;;;;;3.60;1.10;;;;;;;;;;5078499;28;20169;-77
2021/12/01 09:12:55;;;;;;;0.80;0.80;;;;;;;;;;5077258;28;20219;-80
2021/12/01 09:15:21;;;;;;;1.90;1.17;;;;;;;;;;5073753;28;20275;-78
2021/12/01 09:17:47;;;;;;;2.47;0.80;;;;;;;;;;5068461;28;20470;-77
2021/12/01 09:20:13;;;;;;;1.88;1.05;;;;;;;;;;5074975;28;20458;-77
2021/12/01 09:22:39;;;;;;;2.85;1.05;;;;;;;;;;5079094;28;20222;-77
2021/12/01 09:25:07;;;;;;;1.50;0.95;;;;;;;;;;5075959;28;20215;-77
2021/12/01 09:27:33;;;;;;;4.70;0.90;;;;;;;;;;5075618;28;20172;-78
2021/12/01 09:29:59;;;;;;;3.00;1.20;;;;;;;;;;5065065;28;20214;-78
2021/12/01 09:32:25;;;;;;;1.80;0.70;;;;;;;;;;5048854;28;20181;-77
2021/12/01 09:34:51;;;;;;;2.60;0.85;;;;;;;;;;5059235;28;20236;-76
2021/12/01 09:37:17;;;;;;;2.92;1.33;;;;;;;;;;5063376;28;20201;-78
2021/12/01 09:39:44;;;;;;;2.17;0.85;;;;;;;;;;5061727;28;20206;-83
2021/12/01 09:42:10;;;;;;;1.30;1.10;;;;;;;;;;5061029;28;20220;-78
2021/12/01 09:44:37;;;;;;;4.65;0.90;;;;;;;;;;5064236;28;20237;-79
2021/12/01 09:47:04;;;;;;;2.42;0.80;;;;;;;;;;5062489;28;20632;-78
2021/12/01 09:49:30;;;;;;;2.75;0.98;;;;;;;;;;5065395;28;20199;-76
2021/12/01 09:51:56;;;;;;;2.20;1.20;;;;;;;;;;5060444;28;20203;-76
2021/12/01 09:54:23;;;;;;;2.25;1.00;;;;;;;;;;5062804;28;20182;-76
2021/12/01 09:56:50;;;;;;;3.80;1.15;;;;;;;;;;5060556;28;20192;-78
2021/12/01 09:59:16;;;;;;;1.73;0.77;;;;;;;;;;5062098;28;20213;-76
2021/12/01 10:01:42;;;;;;;4.43;1.00;;;;;;;;;;5065277;28;20173;-76
2021/12/01 10:04:09;;;;;;;2.15;0.90;;;;;;;;;;5063003;28;20228;-78
2021/12/01 10:06:35;;;;;;;2.15;0.73;;;;;;;;;;5061017;28;20177;-78
2021/12/01 10:09:04;;;;;;;2.58;0.80;;;;;;;;;;5060512;28;20197;-77
2021/12/01 10:11:33;;;;;;;3.97;1.00;;;;;;;;;;5061046;28;20272;-76
2021/12/01 10:14:01;;;;;;;2.53;1.00;;;;;;;;;;5063286;28;20205;-79
2021/12/01 10:16:28;;;;;;;1.60;0.80;;;;;;;;;;5064071;28;20287;-77
2021/12/01 10:18:56;;;;;;;4.55;0.82;;;;;;;;;;5061521;28;20224;-78
2021/12/01 10:21:24;;;;;;;2.75;1.10;;;;;;;;;;5059590;28;20264;-78
2021/12/01 10:23:54;;;;;;;4.57;0.88;;;;;;;;;;5060738;28;20208;-79
2021/12/01 10:26:31;;;;;;;2.45;0.90;;;;;;;;;;5060356;28;20189;-78
2021/12/01 10:29:05;;;;;;;2.28;1.15;;;;;;;;;;5061374;28;20181;-78
2021/12/01 10:31:33;;;;;;;2.40;1.30;;;;;;;;;;5060091;28;20391;-80
2021/12/01 10:34:18;;;;;;;5.43;1.50;;;;;;;;;;5060724;28;20256;-79
2021/12/01 10:36:45;;;;;;;2.75;1.00;;;;;;;;;;5061025;28;20173;-80
2021/12/01 10:39:11;;;;;;;2.90;2.10;;;;;;;;;;5060570;28;20205;-81
2021/12/01 10:41:37;;;;;;;1.45;1.08;;;;;;;;;;5061249;28;20203;-79
2021/12/01 10:44:17;;;;;;;1.10;0.80;;;;;;;;;;5061853;28;20190;-80
2021/12/01 10:46:51;;;;;;;2.17;1.30;;;;;;;;;;5059013;28;20181;-80
2021/12/01 10:49:17;;;;;;;2.45;1.10;;;;;;;;;;5059111;28;20260;-79
2021/12/01 10:51:44;;;;;;;2.67;1.33;;;;;;;;;;5056161;28;20191;-78
2021/12/01 10:54:15;;;;;;;2.88;1.10;;;;;;;;;;5056652;28;20271;-78
2021/12/01 10:56:41;;;;;;;2.28;1.02;;;;;;;;;;5060457;28;20181;-82
2021/12/01 10:59:14;;;;;;;2.55;1.08;;;;;;;;;;5076609;28;20232;-80
2021/12/01 11:01:41;;;;;;;2.53;1.15;;;;;;;;;;5059186;28;20176;-78
2021/12/01 11:04:07;;;;;;;1.55;1.40;;;;;;;;;;5061680;28;20204;-79
2021/12/01 11:06:38;;;;;;;5.97;2.38;;;;;;;;;;5061672;28;20200;-83
2021/12/01 11:09:04;;;;;;;5.65;2.13;;;;;;;;;;5058772;28;20185;-78
2021/12/01 11:11:44;;;;;;;3.78;1.20;;;;;;;;;;5059145;28;20181;-78
2021/12/01 11:14:11;;;;;;;3.53;1.45;;;;;;;;;;5056183;28;20188;-77
2021/12/01 11:16:38;;;;;;;4.78;1.55;;;;;;;;;;5063988;28;20242;-79
2021/12/01 11:19:04;;;;;;;3.42;0.98;;;;;;;;;;5061824;28;20220;-78
2021/12/01 11:21:30;;;;;;;4.03;1.40;;;;;;;;;;5060274;28;20248;-78
2021/12/01 11:23:59;;;;;;;2.17;1.20;;;;;;;;;;5062727;28;20523;-77
2021/12/01 11:26:26;;;;;;;2.00;1.20;;;;;;;;;;5059184;28;20228;-78
2021/12/01 11:28:54;;;;;;;4.82;1.40;;;;;;;;;;5061364;28;20173;-77
2021/12/01 11:31:25;;;;;;;3.90;1.20;;;;;;;;;;5077718;28;20189;-76
2021/12/01 11:33:55;;;;;;;1.00;0.90;;;;;;;;;;5058743;28;20197;-77
2021/12/01 11:36:22;;;;;;;5.82;1.45;;;;;;;;;;5058157;28;20184;-81
2021/12/01 11:38:51;;;;;;;2.75;1.33;;;;;;;;;;5056956;28;20201;-77
2021/12/01 11:41:18;;;;;;;4.68;1.40;;;;;;;;;;5058042;28;20212;-76
2021/12/01 11:43:45;;;;;;;1.40;1.23;;;;;;;;;;5057702;28;20173;-79
2021/12/01 11:46:11;;;;;;;4.60;1.33;;;;;;;;;;5060716;28;20578;-77
2021/12/01 11:48:40;;;;;;;6.00;1.10;;;;;;;;;;5059294;28;20213;-77
2021/12/01 11:51:21;;;;;;;4.43;1.50;;;;;;;;;;5058570;28;20722;-77
2021/12/01 11:53:58;;;;;;;2.40;1.50;;;;;;;;;;5062903;28;20211;-78
2021/12/01 11:56:28;;;;;;;3.28;1.23;;;;;;;;;;5073065;28;20602;-76
2021/12/01 11:59:00;;;;;;;5.43;1.40;;;;;;;;;;5061971;28;20258;-79
2021/12/01 12:01:26;;;;;;;6.30;1.25;;;;;;;;;;5058889;28;20682;-77
2021/12/01 12:03:56;;;;;;;1.47;1.03;;;;;;;;;;5059494;28;20181;-78
2021/12/01 12:06:23;;;;;;;1.95;1.08;;;;;;;;;;5059177;28;20435;-78
2021/12/01 12:09:05;;;;;;;4.43;1.10;;;;;;;;;;5057552;28;20658;-76
2021/12/01 12:11:41;;;;;;;3.70;1.58;;;;;;;;;;5054780;28;20280;-78
2021/12/01 12:14:09;;;;;;;4.40;1.80;;;;;;;;;;5060635;28;20239;-79
2021/12/01 12:16:37;;;;;;;2.35;1.10;;;;;;;;;;5054580;28;20185;-76
2021/12/01 12:19:03;;;;;;;1.20;1.10;;;;;;;;;;5056470;28;20243;-77
2021/12/01 12:24:10;;;;;;;4.00;1.33;;;;;;;;;;5051509;28;20193;-78
2021/12/01 12:26:44;;;;;;;3.60;1.05;;;;;;;;;;5059877;28;20230;-78
2021/12/01 12:29:15;;;;;;;1.15;0.95;;;;;;;;;;5070436;28;20447;-77
2021/12/01 12:31:42;;;;;;;3.78;1.13;;;;;;;;;;5061851;28;20199;-78
2021/12/01 12:34:14;;;;;;;2.30;1.05;;;;;;;;;;5068700;28;20185;-78
2021/12/01 12:36:46;;;;;;;3.17;0.88;;;;;;;;;;5055431;28;20188;-78
2021/12/01 12:39:23;;;;;;;5.55;1.02;;;;;;;;;;5052527;28;20227;-79
2021/12/01 12:42:00;;;;;;;2.08;0.93;;;;;;;;;;5067974;28;20180;-78
2021/12/01 12:44:30;;;;;;;3.47;1.02;;;;;;;;;;5058003;28;20205;-77
2021/12/01 12:47:01;;;;;;;4.25;1.35;;;;;;;;;;5058298;28;20177;-81
2021/12/01 12:49:37;;;;;;;4.53;1.17;;;;;;;;;;5062345;28;20645;-78
2021/12/01 12:52:42;;;;;;;3.83;1.40;;;;;;;;;;5057218;28;20185;-77
2021/12/01 12:55:09;;;;;;;2.70;1.15;;;;;;;;;;5018531;28;20206;-79
2021/12/01 12:57:50;;;;;;;3.95;1.08;;;;;;;;;;5021157;28;20310;-77
2021/12/01 13:00:16;;;;;;;2.05;1.25;;;;;;;;;;5020169;28;20186;-81
2021/12/01 13:02:42;;;;;;;4.30;1.48;;;;;;;;;;5038053;28;20714;-78
2021/12/01 13:05:09;;;;;;;3.40;1.50;;;;;;;;;;5042449;28;20185;-78
2021/12/01 13:07:40;;;;;;;2.75;1.00;;;;;;;;;;5034335;28;20432;-78
2021/12/01 13:10:09;;;;;;;1.80;1.10;;;;;;;;;;5043808;28;20305;-79
2021/12/01 13:12:47;;;;;;;1.92;1.15;;;;;;;;;;5021910;28;20195;-78
2021/12/01 13:15:22;;;;;;;1.67;1.25;;;;;;;;;;5043641;28;20178;-78
2021/12/01 13:17:52;;;;;;;4.25;1.05;;;;;;;;;;5034697;28;20221;-78
2021/12/01 13:20:22;;;;;;;1.48;1.02;;;;;;;;;;5022049;28;20702;-77
2021/12/01 13:23:01;;;;;;;3.05;1.05;;;;;;;;;;5040733;28;20189;-79
2021/12/01 13:25:27;;;;;;;4.35;1.63;;;;;;;;;;5036205;28;20257;-79
2021/12/01 13:27:53;;;;;;;2.45;1.05;;;;;;;;;;5062434;28;20185;-79
2021/12/01 13:30:20;;;;;;;3.30;1.52;;;;;;;;;;5058615;28;20188;-79
2021/12/01 13:32:46;;;;;;;2.60;1.30;;;;;;;;;;5058447;28;20185;-80
2021/12/01 13:35:12;;;;;;;2.95;2.10;;;;;;;;;;5061488;28;20220;-79
2021/12/01 13:37:38;;;;;;;2.33;1.50;;;;;;;;;;5061420;28;20739;-80
2021/12/01 13:40:11;;;;;;;4.22;0.90;;;;;;;;;;5058934;28;20186;-79
2021/12/01 13:42:37;;;;;;;2.20;1.13;;;;;;;;;;5060488;28;20173;-79
2021/12/01 13:45:03;;;;;;;5.20;1.00;;;;;;;;;;5060919;28;20204;-78
2021/12/01 13:47:31;;;;;;;3.05;1.35;;;;;;;;;;5062216;28;20497;-78
2021/12/01 13:49:59;;;;;;;4.00;1.00;;;;;;;;;;5055414;28;20182;-77
2021/12/01 13:52:33;;;;;;;3.35;1.65;;;;;;;;;;5063921;28;20177;-77
2021/12/01 13:55:15;;;;;;;2.15;1.05;;;;;;;;;;5061448;28;20203;-78
2021/12/01 13:57:41;;;;;;;2.00;1.00;;;;;;;;;;5060070;28;20208;-77
2021/12/01 14:00:07;;;;;;;3.17;1.53;;;;;;;;;;5060444;28;20181;-76
2021/12/01 14:02:33;;;;;;;1.50;0.90;;;;;;;;;;5061451;28;20438;-77
2021/12/01 14:05:00;;;;;;;4.68;1.08;;;;;;;;;;5063927;28;20200;-78
2021/12/01 14:07:27;;;;;;;2.63;0.90;;;;;;;;;;5063146;28;20197;-78
2021/12/01 14:10:10;;;;;;;4.85;1.30;;;;;;;;;;5062321;28;20202;-78
2021/12/01 14:12:37;;;;;;;1.95;1.10;;;;;;;;;;5060187;28;20205;-77
2021/12/01 14:15:04;;;;;;;1.77;0.90;;;;;;;;;;5062201;28;20572;-78
2021/12/01 14:17:30;;;;;;;3.85;1.55;;;;;;;;;;5060449;28;20232;-77
2021/12/01 14:19:57;;;;;;;1.63;1.10;;;;;;;;;;5058836;28;20184;-78
2021/12/01 14:22:23;;;;;;;2.60;1.50;;;;;;;;;;5062962;28;20185;-79
2021/12/01 14:24:54;;;;;;;4.35;2.20;;;;;;;;;;5059999;28;20181;-80
2021/12/01 14:27:25;;;;;;;4.57;1.63;;;;;;;;;;5069608;28;20205;-81
2021/12/01 14:29:51;;;;;;;2.30;1.83;;;;;;;;;;5050991;28;20207;-79
2021/12/01 14:32:17;;;;;;;4.68;2.10;;;;;;;;;;5062212;28;20181;-76
2021/12/01 14:34:43;;;;;;;1.80;1.40;;;;;;;;;;5063762;28;20181;-77
2021/12/01 14:37:11;;;;;;;3.80;3.00;;;;;;;;;;5062835;28;20244;-79
2021/12/01 14:39:37;;;;;;;7.13;2.92;;;;;;;;;;5060033;28;20213;-79
2021/12/01 14:42:04;;;;;;;3.22;1.85;;;;;;;;;;5059512;28;20207;-78
2021/12/01 14:44:31;;;;;;;16.27;4.95;;;;;;;;;;5059257;28;20194;-79
2021/12/01 14:47:03;;;;;;;4.18;1.30;;;;;;;;;;5061031;28;20169;-79
2021/12/01 14:49:39;;;;;;;5.43;2.50;;;;;;;;;;5063899;28;20256;-80
2021/12/01 14:52:06;;;;;;;3.20;1.45;;;;;;;;;;5071747;28;20234;-77
2021/12/01 14:54:35;;;;;;;5.88;1.83;;;;;;;;;;5059600;28;20181;-77
2021/12/01 14:57:04;;;;;;;4.75;1.75;;;;;;;;;;5059338;28;20209;-77
2021/12/01 14:59:30;;;;;;;5.30;1.40;;;;;;;;;;5061298;28;20197;-78